createdAt,value
2023-02-14T00:00:44.852Z,14.20
2023-02-14T00:03:13.380Z,14.02
2023-02-14T00:05:39.834Z,14.27
2023-02-14T00:08:06.384Z,14.85
2023-02-14T00:10:32.796Z,15.03
2023-02-14T00:12:59.179Z,14.32
2023-02-14T00:15:25.828Z,15.60
2023-02-14T00:17:55.210Z,15.13
2023-02-14T00:20:26.069Z,14.55
2023-02-14T00:22:53.629Z,15.27
2023-02-14T00:25:19.995Z,14.60
2023-02-14T00:27:46.411Z,14.23
2023-02-14T00:30:13.547Z,14.30
2023-02-14T00:32:41.560Z,15.07
2023-02-14T00:35:09.603Z,14.03
2023-02-14T00:37:36.284Z,13.93
2023-02-14T00:40:03.264Z,14.30
2023-02-14T00:42:29.718Z,13.98
2023-02-14T00:44:56.204Z,14.27
2023-02-14T00:47:22.765Z,14.60
2023-02-14T00:49:49.247Z,14.75
2023-02-14T00:52:15.905Z,13.75
2023-02-14T00:54:42.356Z,12.98
2023-02-14T00:57:09.067Z,14.48
2023-02-14T00:59:35.545Z,14.03
2023-02-14T01:02:02.292Z,13.73
2023-02-14T01:04:28.839Z,13.18
2023-02-14T01:06:55.296Z,14.30
2023-02-14T01:09:21.701Z,13.85
2023-02-14T01:11:48.773Z,13.33
2023-02-14T01:14:15.690Z,13.57
2023-02-14T01:16:42.138Z,13.88
2023-02-14T01:19:09.324Z,14.57
2023-02-14T01:21:36.501Z,13.32
2023-02-14T01:24:06.113Z,13.57
2023-02-14T01:26:33.372Z,14.13
2023-02-14T01:28:59.991Z,14.57
2023-02-14T01:31:29.630Z,13.35
2023-02-14T01:33:57.425Z,12.45
2023-02-14T01:36:26.981Z,13.23
2023-02-14T01:38:56.445Z,11.68
2023-02-14T01:41:25.017Z,11.70
2023-02-14T01:44:01.465Z,12.52
2023-02-14T01:46:31.878Z,12.48
2023-02-14T01:49:15.774Z,11.67
2023-02-14T01:51:51.123Z,12.52
2023-02-14T01:54:19.156Z,12.85
2023-02-14T01:56:49.444Z,13.02
2023-02-14T01:59:20.987Z,12.75
2023-02-14T02:01:49.804Z,11.57
2023-02-14T02:04:22.409Z,11.27
2023-02-14T02:06:53.511Z,10.18
2023-02-14T02:09:34.384Z,11.05
2023-02-14T02:12:01.932Z,8.52
2023-02-14T02:14:29.017Z,9.60
2023-02-14T02:17:31.179Z,9.30
2023-02-14T02:20:24.926Z,9.48
2023-02-14T02:22:54.278Z,9.45
2023-02-14T02:25:36.078Z,10.00
2023-02-14T02:28:11.120Z,10.00
2023-02-14T02:30:54.828Z,9.48
2023-02-14T02:33:47.694Z,10.43
2023-02-14T02:36:29.988Z,10.02
2023-02-14T02:38:59.388Z,9.85
2023-02-14T02:41:53.848Z,9.27
2023-02-14T02:44:58.984Z,9.48
2023-02-14T02:47:57.131Z,9.18
2023-02-14T02:50:53.095Z,9.15
2023-02-14T02:53:37.306Z,10.10
2023-02-14T02:56:27.657Z,9.77
2023-02-14T02:59:18.119Z,8.88
2023-02-14T03:02:13.772Z,9.02
2023-02-14T03:04:53.512Z,9.30
2023-02-14T03:07:36.164Z,10.02
2023-02-14T03:10:15.972Z,10.60
2023-02-14T03:13:00.723Z,9.98
2023-02-14T03:15:39.260Z,9.80
2023-02-14T03:19:02.754Z,9.55
2023-02-14T03:21:50.191Z,8.82
2023-02-14T03:24:40.898Z,9.53
2023-02-14T03:27:32.534Z,8.43
2023-02-14T03:30:17.680Z,8.52
2023-02-14T03:32:55.186Z,7.78
2023-02-14T03:35:29.631Z,9.00
2023-02-14T03:38:06.672Z,8.87
2023-02-14T03:40:49.473Z,7.93
2023-02-14T03:43:24.468Z,7.53
2023-02-14T03:46:00.268Z,8.00
2023-02-14T03:48:28.959Z,7.88
2023-02-14T03:50:57.514Z,8.40
2023-02-14T03:53:28.193Z,8.10
2023-02-14T03:56:00.504Z,8.30
2023-02-14T03:58:34.657Z,7.80
2023-02-14T04:01:11.713Z,7.65
2023-02-14T04:03:41.494Z,7.80
2023-02-14T04:06:09.013Z,7.22
2023-02-14T04:08:35.681Z,6.97
2023-02-14T04:11:04.246Z,6.78
2023-02-14T04:13:31.076Z,6.68
2023-02-14T04:15:57.495Z,6.33
2023-02-14T04:18:42.764Z,6.68
2023-02-14T04:21:10.372Z,6.68
2023-02-14T04:23:37.411Z,6.75
2023-02-14T04:26:04.823Z,6.18
2023-02-14T04:28:31.950Z,6.33
2023-02-14T04:31:03.005Z,6.80
2023-02-14T04:33:29.909Z,6.57
2023-02-14T04:35:56.594Z,6.57
2023-02-14T04:38:23.076Z,6.97
2023-02-14T04:40:50.512Z,7.20
2023-02-14T04:43:16.932Z,6.35
2023-02-14T04:45:43.449Z,7.50
2023-02-14T04:48:10.186Z,7.05
2023-02-14T04:50:36.994Z,7.40
2023-02-14T04:53:03.417Z,7.73
2023-02-14T04:55:30.168Z,7.75
2023-02-14T04:57:56.574Z,7.65
2023-02-14T05:00:24.077Z,7.40
2023-02-14T05:02:50.484Z,6.93
2023-02-14T05:05:16.972Z,6.90
2023-02-14T05:07:47.514Z,7.55
2023-02-14T05:10:14.819Z,7.82
2023-02-14T05:12:41.612Z,8.13
2023-02-14T05:15:08.454Z,7.95
2023-02-14T05:17:36.131Z,7.77
2023-02-14T05:20:04.353Z,8.35
2023-02-14T05:22:30.687Z,8.15
2023-02-14T05:24:57.205Z,8.25
2023-02-14T05:27:23.606Z,7.50
2023-02-14T05:29:50.034Z,8.07
2023-02-14T05:32:16.452Z,7.88
2023-02-14T05:34:42.900Z,8.27
2023-02-14T05:37:09.286Z,7.65
2023-02-14T05:39:35.728Z,8.30
2023-02-14T05:42:03.088Z,8.37
2023-02-14T05:44:29.707Z,8.30
2023-02-14T05:46:56.535Z,7.63
2023-02-14T05:49:22.876Z,8.02
2023-02-14T05:51:49.946Z,7.68
2023-02-14T05:54:16.298Z,7.70
2023-02-14T05:56:42.757Z,8.05
2023-02-14T05:59:09.115Z,7.45
2023-02-14T06:01:35.540Z,8.32
2023-02-14T06:04:02.038Z,7.82
2023-02-14T06:06:28.593Z,7.47
2023-02-14T06:08:54.997Z,7.55
2023-02-14T06:11:21.390Z,8.13
2023-02-14T06:13:47.885Z,7.90
2023-02-14T06:16:14.336Z,9.05
2023-02-14T06:18:40.721Z,6.60
2023-02-14T06:21:07.110Z,7.28
2023-02-14T06:23:33.488Z,7.32
2023-02-14T06:26:00.170Z,7.13
2023-02-14T06:28:26.631Z,7.10
2023-02-14T06:30:53.266Z,7.70
2023-02-14T06:33:19.688Z,7.55
2023-02-14T06:35:46.236Z,6.97
2023-02-14T06:38:12.648Z,7.00
2023-02-14T06:40:39.090Z,7.72
2023-02-14T06:43:05.702Z,8.10
2023-02-14T06:45:32.124Z,7.93
2023-02-14T06:47:59.904Z,7.75
2023-02-14T06:50:26.518Z,7.60
2023-02-14T06:52:52.907Z,8.25
2023-02-14T06:55:19.396Z,7.70
2023-02-14T06:57:45.999Z,7.30
2023-02-14T07:00:14.695Z,7.72
2023-02-14T07:02:41.439Z,7.88
2023-02-14T07:05:08.297Z,7.72
2023-02-14T07:07:34.706Z,7.00
2023-02-14T07:10:01.142Z,7.05
2023-02-14T07:12:27.916Z,7.32
2023-02-14T07:14:54.369Z,7.50
2023-02-14T07:17:20.913Z,7.68
2023-02-14T07:19:47.362Z,8.90
2023-02-14T07:22:14.200Z,7.63
2023-02-14T07:24:40.759Z,7.47
2023-02-14T07:27:07.259Z,8.55
2023-02-14T07:29:33.825Z,8.80
2023-02-14T07:32:01.167Z,8.63
2023-02-14T07:34:27.655Z,8.63
2023-02-14T07:36:54.217Z,8.98
2023-02-14T07:39:20.750Z,9.35
2023-02-14T07:41:47.195Z,9.27
2023-02-14T07:44:14.336Z,8.80
2023-02-14T07:46:40.790Z,8.93
2023-02-14T07:49:07.730Z,9.18
2023-02-14T07:51:34.199Z,9.40
2023-02-14T07:54:01.159Z,8.88
2023-02-14T07:56:27.779Z,8.90
2023-02-14T07:58:54.583Z,8.82
2023-02-14T08:01:21.176Z,10.13
2023-02-14T08:03:51.570Z,10.80
2023-02-14T08:06:21.466Z,9.98
2023-02-14T08:08:48.453Z,10.27
2023-02-14T08:11:35.479Z,10.57
2023-02-14T08:14:03.051Z,10.65
2023-02-14T08:16:29.655Z,11.93
2023-02-14T08:18:56.207Z,10.70
2023-02-14T08:21:22.728Z,12.30
2023-02-14T08:23:49.309Z,11.65
2023-02-14T08:26:15.870Z,12.25
2023-02-14T08:28:42.540Z,13.32
2023-02-14T08:31:09.338Z,11.85
2023-02-14T08:33:36.051Z,12.70
2023-02-14T08:36:03.115Z,13.07
2023-02-14T08:38:29.674Z,13.77
2023-02-14T08:41:00.698Z,13.05
2023-02-14T08:43:27.865Z,13.27
2023-02-14T08:45:54.683Z,13.37
2023-02-14T08:48:23.613Z,13.85
2023-02-14T08:50:50.826Z,14.77
2023-02-14T08:53:17.644Z,13.35
2023-02-14T08:55:44.262Z,13.98
2023-02-14T08:58:10.820Z,14.03
2023-02-14T09:00:37.332Z,13.70
2023-02-14T09:03:07.015Z,13.60
2023-02-14T09:05:34.500Z,13.20
2023-02-14T09:08:19.724Z,14.35
2023-02-14T09:10:46.337Z,12.97
2023-02-14T09:13:12.754Z,14.02
2023-02-14T09:15:40.396Z,14.98
2023-02-14T09:18:06.838Z,14.20
2023-02-14T09:20:33.297Z,15.55
2023-02-14T09:22:59.717Z,14.53
2023-02-14T09:25:26.181Z,14.32
2023-02-14T09:27:52.598Z,14.77
2023-02-14T09:30:19.252Z,14.95
2023-02-14T09:32:45.796Z,14.35
2023-02-14T09:35:12.290Z,14.43
2023-02-14T09:37:38.760Z,14.98
2023-02-14T09:40:05.801Z,15.35
2023-02-14T09:42:49.575Z,15.90
2023-02-14T09:45:22.476Z,16.05
2023-02-14T09:47:48.840Z,14.93
2023-02-14T09:50:41.728Z,16.02
2023-02-14T09:53:14.142Z,15.27
2023-02-14T09:56:05.848Z,15.73
2023-02-14T09:58:36.938Z,15.07
2023-02-14T10:01:17.094Z,15.07
2023-02-14T10:04:09.215Z,13.93
2023-02-14T10:07:00.590Z,17.23
2023-02-14T10:09:59.437Z,16.55
2023-02-14T10:12:45.633Z,16.13
2023-02-14T10:15:23.821Z,14.17
2023-02-14T10:17:56.161Z,14.25
2023-02-14T10:20:31.324Z,15.38
2023-02-14T10:23:22.730Z,15.52
2023-02-14T10:25:59.374Z,14.38
2023-02-14T10:28:54.325Z,13.83
2023-02-14T10:31:39.092Z,14.82
2023-02-14T10:34:17.423Z,14.05
2023-02-14T10:37:02.377Z,14.05
2023-02-14T10:39:34.800Z,14.50
2023-02-14T10:42:12.501Z,14.90
2023-02-14T10:45:02.216Z,15.07
2023-02-14T10:47:28.750Z,14.48
2023-02-14T10:50:06.047Z,14.25
2023-02-14T10:52:40.558Z,15.20
2023-02-14T10:55:32.382Z,16.20
2023-02-14T10:58:04.142Z,14.48
2023-02-14T11:00:37.839Z,15.02
2023-02-14T11:03:08.153Z,14.77
2023-02-14T11:05:47.445Z,14.38
2023-02-14T11:08:31.527Z,15.00
2023-02-14T11:11:25.469Z,14.25
2023-02-14T11:13:52.071Z,13.27
2023-02-14T11:16:30.260Z,13.85
2023-02-14T11:19:10.767Z,14.38
2023-02-14T11:21:44.155Z,13.47
2023-02-14T11:24:41.759Z,14.15
2023-02-14T11:27:21.149Z,14.65
2023-02-14T11:29:58.470Z,14.30
2023-02-14T11:32:30.892Z,13.73
2023-02-14T11:35:02.452Z,14.70
2023-02-14T11:37:50.645Z,14.68
2023-02-14T11:40:31.387Z,14.25
2023-02-14T11:43:19.089Z,14.55
2023-02-14T11:45:48.473Z,14.80
2023-02-14T11:48:37.357Z,14.83
2023-02-14T11:51:14.091Z,14.68
2023-02-14T11:53:43.622Z,14.30
2023-02-14T11:56:10.808Z,14.75
2023-02-14T11:58:41.797Z,14.35
2023-02-14T12:01:14.004Z,13.20
2023-02-14T12:03:46.111Z,15.02
2023-02-14T12:06:22.841Z,12.82
2023-02-14T12:08:49.736Z,14.00
2023-02-14T12:11:24.248Z,13.50
2023-02-14T12:13:55.392Z,13.20
2023-02-14T12:16:45.926Z,13.10
2023-02-14T12:19:24.430Z,13.02
2023-02-14T12:22:02.830Z,13.77
2023-02-14T12:24:40.247Z,13.68
2023-02-14T12:27:06.643Z,13.60
2023-02-14T12:29:45.503Z,12.75
2023-02-14T12:32:21.655Z,12.98
2023-02-14T12:34:49.813Z,13.68
2023-02-14T12:37:16.804Z,13.73
2023-02-14T12:40:12.345Z,12.93
2023-02-14T12:42:41.842Z,12.70
2023-02-14T12:45:43.726Z,12.65
2023-02-14T12:48:41.919Z,12.63
2023-02-14T12:51:22.425Z,13.15
2023-02-14T12:54:11.840Z,13.03
2023-02-14T12:56:55.031Z,13.60
2023-02-14T12:59:46.120Z,13.90
2023-02-14T13:02:43.801Z,13.95
2023-02-14T13:05:42.160Z,14.10
2023-02-14T13:08:44.579Z,13.00
2023-02-14T13:11:18.080Z,13.95
2023-02-14T13:13:56.711Z,13.52
2023-02-14T13:16:33.626Z,13.52
2023-02-14T13:19:04.756Z,13.35
2023-02-14T13:21:35.494Z,12.40
2023-02-14T13:24:48.547Z,12.30
2023-02-14T13:27:34.424Z,12.18
2023-02-14T13:30:06.216Z,12.32
2023-02-14T13:32:40.476Z,12.55
2023-02-14T13:35:08.328Z,11.90
2023-02-14T13:37:36.499Z,11.98
2023-02-14T13:40:08.150Z,12.07
2023-02-14T13:42:52.590Z,11.40
2023-02-14T13:45:49.252Z,11.75
2023-02-14T13:48:27.439Z,11.87
2023-02-14T13:51:00.068Z,12.27
2023-02-14T13:53:35.690Z,11.85
2023-02-14T13:56:32.407Z,11.38
2023-02-14T13:59:03.048Z,12.18
2023-02-14T14:01:34.085Z,11.47
2023-02-14T14:04:28.453Z,11.73
2023-02-14T14:07:01.144Z,10.98
2023-02-14T14:09:43.079Z,10.98
2023-02-14T14:12:24.544Z,11.90
2023-02-14T14:15:06.551Z,12.03
2023-02-14T14:17:50.556Z,12.55
2023-02-14T14:20:18.565Z,11.88
2023-02-14T14:22:48.989Z,11.82
2023-02-14T14:25:39.692Z,11.80
2023-02-14T14:28:19.435Z,11.43
2023-02-14T14:30:46.336Z,12.32
2023-02-14T14:33:22.805Z,12.25
2023-02-14T14:35:55.398Z,11.48
2023-02-14T14:38:22.393Z,11.90
2023-02-14T14:40:50.778Z,11.10
2023-02-14T14:43:21.569Z,11.20
2023-02-14T14:45:51.518Z,12.05
2023-02-14T14:48:30.895Z,11.77
2023-02-14T14:50:58.258Z,12.43
2023-02-14T14:53:29.646Z,11.27
2023-02-14T14:55:56.469Z,11.93
2023-02-14T14:58:33.859Z,12.00
2023-02-14T15:01:00.540Z,12.55
2023-02-14T15:03:29.561Z,11.60
2023-02-14T15:06:06.660Z,11.20
2023-02-14T15:08:34.446Z,11.07
2023-02-14T15:11:46.817Z,12.40
2023-02-14T15:14:23.876Z,11.15
2023-02-14T15:17:06.753Z,12.55
2023-02-14T15:19:41.716Z,11.07
2023-02-14T15:22:31.735Z,12.05
2023-02-14T15:24:58.549Z,12.70
2023-02-14T15:27:26.997Z,11.02
2023-02-14T15:29:59.234Z,11.75
2023-02-14T15:32:30.076Z,11.77
2023-02-14T15:34:57.267Z,11.02
2023-02-14T15:37:25.333Z,11.27
2023-02-14T15:39:57.930Z,11.27
2023-02-14T15:42:33.460Z,11.52
2023-02-14T15:45:36.577Z,10.97
2023-02-14T15:48:06.239Z,11.48
2023-02-14T15:50:42.834Z,11.23
2023-02-14T15:53:42.989Z,10.63
2023-02-14T15:56:19.665Z,10.98
2023-02-14T15:58:46.865Z,10.77
2023-02-14T16:01:13.842Z,12.07
2023-02-14T16:03:49.136Z,11.50
2023-02-14T16:06:39.278Z,10.77
2023-02-14T16:09:27.586Z,11.52
2023-02-14T16:11:54.201Z,10.97
2023-02-14T16:14:35.709Z,10.80
2023-02-14T16:17:15.098Z,11.20
2023-02-14T16:19:44.813Z,11.50
2023-02-14T16:22:23.829Z,12.63
2023-02-14T16:24:50.317Z,11.07
2023-02-14T16:27:16.778Z,12.27
2023-02-14T16:29:43.353Z,11.30
2023-02-14T16:32:17.448Z,12.10
2023-02-14T16:34:47.116Z,11.73
2023-02-14T16:37:30.421Z,11.63
2023-02-14T16:40:01.038Z,11.70
2023-02-14T16:42:27.847Z,12.55
2023-02-14T16:44:54.358Z,12.18
2023-02-14T16:47:21.501Z,12.43
2023-02-14T16:49:48.504Z,12.00
2023-02-14T16:52:23.683Z,12.90
2023-02-14T16:54:50.865Z,13.10
2023-02-14T16:57:30.366Z,11.85
2023-02-14T16:59:57.006Z,12.95
2023-02-14T17:02:26.233Z,12.13
2023-02-14T17:04:52.672Z,11.80
2023-02-14T17:07:19.073Z,13.27
2023-02-14T17:10:00.113Z,12.85
2023-02-14T17:12:30.916Z,12.43
2023-02-14T17:15:00.361Z,12.97
2023-02-14T17:17:26.895Z,12.73
2023-02-14T17:19:54.085Z,12.43
2023-02-14T17:22:20.583Z,12.60
2023-02-14T17:24:46.971Z,11.77
2023-02-14T17:27:13.471Z,12.33
2023-02-14T17:29:40.167Z,12.25
2023-02-14T17:32:06.699Z,11.93
2023-02-14T17:34:34.000Z,11.48
2023-02-14T17:37:00.546Z,11.88
2023-02-14T17:39:27.044Z,11.67
2023-02-14T17:41:53.482Z,12.20
2023-02-14T17:44:19.906Z,13.05
2023-02-14T17:46:46.365Z,11.52
2023-02-14T17:49:12.956Z,12.65
2023-02-14T17:51:39.393Z,12.60
2023-02-14T17:54:05.903Z,12.40
2023-02-14T17:56:32.410Z,13.30
2023-02-14T17:58:59.797Z,12.98
2023-02-14T18:01:31.375Z,12.30
2023-02-14T18:03:57.896Z,11.63
2023-02-14T18:06:24.373Z,12.43
2023-02-14T18:08:56.920Z,12.35
2023-02-14T18:11:28.606Z,11.60
2023-02-14T18:13:56.196Z,12.52
2023-02-14T18:16:23.166Z,13.03
2023-02-14T18:18:49.670Z,12.63
2023-02-14T18:21:20.105Z,13.05
2023-02-14T18:23:46.546Z,13.40
2023-02-14T18:26:14.960Z,13.93
2023-02-14T18:28:41.613Z,13.87
2023-02-14T18:31:11.091Z,14.93
2023-02-14T18:33:38.044Z,14.57
2023-02-14T18:36:07.155Z,13.10
2023-02-14T18:38:35.019Z,14.68
2023-02-14T18:41:03.269Z,14.47
2023-02-14T18:43:30.305Z,14.25
2023-02-14T18:46:02.705Z,13.73
2023-02-14T18:48:30.229Z,14.15
2023-02-14T18:50:56.851Z,12.88
2023-02-14T18:53:23.181Z,13.87
2023-02-14T18:55:49.580Z,13.30
2023-02-14T18:58:15.969Z,12.85
2023-02-14T19:00:42.351Z,12.30
2023-02-14T19:03:09.279Z,14.07
2023-02-14T19:05:38.008Z,13.10
2023-02-14T19:08:05.723Z,12.57
2023-02-14T19:10:33.151Z,12.23
2023-02-14T19:12:59.718Z,13.13
2023-02-14T19:15:27.069Z,12.82
2023-02-14T19:17:54.117Z,14.17
2023-02-14T19:20:20.686Z,13.55
2023-02-14T19:22:47.099Z,12.65
2023-02-14T19:25:13.627Z,13.38
2023-02-14T19:27:40.064Z,13.48
2023-02-14T19:30:07.192Z,12.77
2023-02-14T19:32:33.675Z,13.55
2023-02-14T19:35:00.009Z,13.13
2023-02-14T19:37:26.821Z,13.35
2023-02-14T19:39:53.839Z,14.18
2023-02-14T19:42:20.317Z,13.93
2023-02-14T19:44:47.401Z,13.75
2023-02-14T19:47:27.210Z,13.60
2023-02-14T19:49:57.581Z,13.95
2023-02-14T19:52:26.590Z,15.10
2023-02-14T19:54:55.315Z,15.97
2023-02-14T19:57:21.741Z,14.65
2023-02-14T19:59:48.166Z,15.10
2023-02-14T20:02:17.708Z,14.85
2023-02-14T20:04:44.207Z,12.80
2023-02-14T20:07:10.733Z,14.30
2023-02-14T20:09:40.004Z,14.40
2023-02-14T20:12:06.933Z,14.45
2023-02-14T20:14:50.132Z,15.38
2023-02-14T20:17:18.136Z,14.60
2023-02-14T20:19:44.849Z,12.57
2023-02-14T20:22:11.238Z,14.30
2023-02-14T20:24:37.703Z,15.25
2023-02-14T20:27:04.171Z,16.02
2023-02-14T20:29:31.016Z,14.88
2023-02-14T20:32:00.042Z,15.10
2023-02-14T20:34:27.100Z,14.55
2023-02-14T20:36:55.200Z,14.00
2023-02-14T20:39:23.818Z,14.05
2023-02-14T20:41:50.372Z,14.93
2023-02-14T20:44:21.911Z,13.53
2023-02-14T20:46:51.474Z,14.13
2023-02-14T20:49:19.051Z,14.27
2023-02-14T20:51:46.484Z,13.73
2023-02-14T20:54:13.367Z,14.75
2023-02-14T20:56:40.258Z,14.23
2023-02-14T20:59:07.359Z,13.48
2023-02-14T21:01:33.842Z,14.18
2023-02-14T21:04:00.701Z,15.15
2023-02-14T21:06:29.995Z,16.23
2023-02-14T21:08:57.260Z,13.50
2023-02-14T21:11:25.358Z,15.20
2023-02-14T21:14:00.067Z,16.13
2023-02-14T21:16:27.535Z,14.82
2023-02-14T21:18:58.832Z,15.63
2023-02-14T21:21:36.576Z,15.33
2023-02-14T21:24:12.654Z,14.27
2023-02-14T21:26:39.406Z,13.93
2023-02-14T21:29:06.322Z,15.23
2023-02-14T21:31:33.520Z,15.55
2023-02-14T21:34:01.953Z,13.77
2023-02-14T21:36:31.033Z,13.70
2023-02-14T21:38:59.290Z,16.48
2023-02-14T21:41:28.795Z,15.05
2023-02-14T21:43:58.045Z,14.18
2023-02-14T21:46:27.625Z,15.27
2023-02-14T21:49:14.038Z,13.55
2023-02-14T21:51:41.251Z,15.18
2023-02-14T21:54:08.376Z,14.32
2023-02-14T21:56:36.250Z,14.32
2023-02-14T21:59:02.936Z,14.90
2023-02-14T22:01:32.271Z,15.15
2023-02-14T22:04:00.460Z,14.95
2023-02-14T22:06:27.936Z,14.77
2023-02-14T22:08:58.912Z,15.38
2023-02-14T22:11:27.652Z,15.17
2023-02-14T22:13:54.608Z,14.88
2023-02-14T22:16:22.168Z,16.17
2023-02-14T22:18:48.719Z,15.82
2023-02-14T22:21:23.542Z,17.02
2023-02-14T22:23:50.334Z,14.87
2023-02-14T22:26:20.155Z,15.15
2023-02-14T22:28:47.864Z,15.35
2023-02-14T22:31:15.925Z,15.43
2023-02-14T22:33:42.957Z,16.45
2023-02-14T22:36:10.345Z,14.47
2023-02-14T22:38:37.176Z,15.27
2023-02-14T22:41:09.501Z,16.40
2023-02-14T22:43:36.899Z,16.13
2023-02-14T22:46:05.907Z,16.05
2023-02-14T22:48:33.649Z,15.17
2023-02-14T22:51:07.331Z,14.75
2023-02-14T22:53:33.907Z,15.13
2023-02-14T22:56:12.404Z,15.00
2023-02-14T22:58:39.405Z,15.00
2023-02-14T23:01:06.137Z,16.03
2023-02-14T23:03:33.052Z,15.93
2023-02-14T23:06:00.275Z,15.85
2023-02-14T23:08:27.087Z,16.25
2023-02-14T23:10:53.454Z,14.73
2023-02-14T23:13:38.423Z,14.00
2023-02-14T23:16:23.415Z,14.88
2023-02-14T23:19:08.299Z,15.02
2023-02-14T23:21:53.091Z,14.82
2023-02-14T23:24:19.495Z,15.18
2023-02-14T23:26:45.964Z,15.20
2023-02-14T23:29:12.408Z,14.35
2023-02-14T23:31:39.059Z,14.95
2023-02-14T23:34:05.567Z,16.13
2023-02-14T23:36:32.180Z,13.73
2023-02-14T23:38:58.624Z,14.97
2023-02-14T23:41:43.483Z,14.88
2023-02-14T23:44:09.831Z,15.25
2023-02-14T23:46:36.496Z,14.77
2023-02-14T23:49:03.141Z,15.82
2023-02-14T23:51:29.550Z,15.20
2023-02-14T23:53:56.054Z,15.55
2023-02-14T23:56:22.559Z,14.30
2023-02-14T23:58:49.083Z,15.13
